sensor_id;sensor_type;location;lat;lon;timestamp;P1;durP1;ratioP1;P2;durP2;ratioP2
52530;SDS011;38441;52.894;6.040;2022-08-19T00:01:18;6.43;;;3.95;;
52530;SDS011;38441;52.894;6.040;2022-08-19T00:03:44;5.75;;;4.47;;
52530;SDS011;38441;52.894;6.040;2022-08-19T00:06:09;7.10;;;4.28;;
52530;SDS011;38441;52.894;6.040;2022-08-19T00:08:35;7.55;;;4.78;;
52530;SDS011;38441;52.894;6.040;2022-08-19T00:11:01;8.02;;;4.82;;
52530;SDS011;38441;52.894;6.040;2022-08-19T00:13:27;4.95;;;4.30;;
52530;SDS011;38441;52.894;6.040;2022-08-19T00:15:54;6.50;;;4.38;;
52530;SDS011;38441;52.894;6.040;2022-08-19T00:18:20;5.50;;;4.15;;
52530;SDS011;38441;52.894;6.040;2022-08-19T00:20:46;6.03;;;4.15;;
52530;SDS011;38441;52.894;6.040;2022-08-19T00:23:11;5.78;;;4.20;;
52530;SDS011;38441;52.894;6.040;2022-08-19T00:25:37;6.20;;;4.18;;
52530;SDS011;38441;52.894;6.040;2022-08-19T00:28:03;6.80;;;4.50;;
52530;SDS011;38441;52.894;6.040;2022-08-19T00:30:29;7.97;;;4.63;;
52530;SDS011;38441;52.894;6.040;2022-08-19T00:32:55;6.95;;;4.10;;
52530;SDS011;38441;52.894;6.040;2022-08-19T00:35:21;7.55;;;4.53;;
52530;SDS011;38441;52.894;6.040;2022-08-19T00:37:47;6.32;;;4.22;;
52530;SDS011;38441;52.894;6.040;2022-08-19T00:40:14;5.80;;;4.07;;
52530;SDS011;38441;52.894;6.040;2022-08-19T00:42:41;5.80;;;4.45;;
52530;SDS011;38441;52.894;6.040;2022-08-19T00:45:15;6.93;;;4.03;;
52530;SDS011;38441;52.894;6.040;2022-08-19T00:47:45;5.25;;;3.55;;
52530;SDS011;38441;52.894;6.040;2022-08-19T00:50:11;4.35;;;3.33;;
52530;SDS011;38441;52.894;6.040;2022-08-19T00:52:41;5.70;;;3.30;;
52530;SDS011;38441;52.894;6.040;2022-08-19T00:55:12;4.07;;;3.10;;
52530;SDS011;38441;52.894;6.040;2022-08-19T01:00:12;6.28;;;3.55;;
52530;SDS011;38441;52.894;6.040;2022-08-19T01:02:41;4.78;;;3.58;;
52530;SDS011;38441;52.894;6.040;2022-08-19T01:05:09;4.80;;;3.55;;
52530;SDS011;38441;52.894;6.040;2022-08-19T01:07:43;5.60;;;3.10;;
52530;SDS011;38441;52.894;6.040;2022-08-19T01:10:12;5.07;;;3.33;;
52530;SDS011;38441;52.894;6.040;2022-08-19T01:12:40;4.60;;;2.90;;
52530;SDS011;38441;52.894;6.040;2022-08-19T01:15:07;3.92;;;2.75;;
52530;SDS011;38441;52.894;6.040;2022-08-19T01:17:36;4.38;;;2.67;;
52530;SDS011;38441;52.894;6.040;2022-08-19T01:20:04;4.05;;;2.72;;
52530;SDS011;38441;52.894;6.040;2022-08-19T01:22:34;5.63;;;3.03;;
52530;SDS011;38441;52.894;6.040;2022-08-19T01:25:09;4.43;;;3.22;;
52530;SDS011;38441;52.894;6.040;2022-08-19T01:27:39;4.15;;;3.17;;
52530;SDS011;38441;52.894;6.040;2022-08-19T01:30:06;4.75;;;3.10;;
52530;SDS011;38441;52.894;6.040;2022-08-19T01:32:32;4.63;;;2.83;;
52530;SDS011;38441;52.894;6.040;2022-08-19T01:34:58;3.80;;;2.15;;
52530;SDS011;38441;52.894;6.040;2022-08-19T01:37:26;3.67;;;1.83;;
52530;SDS011;38441;52.894;6.040;2022-08-19T01:39:51;2.70;;;1.80;;
52530;SDS011;38441;52.894;6.040;2022-08-19T01:42:18;3.05;;;2.20;;
52530;SDS011;38441;52.894;6.040;2022-08-19T01:44:44;4.00;;;2.50;;
52530;SDS011;38441;52.894;6.040;2022-08-19T01:47:10;4.32;;;3.00;;
52530;SDS011;38441;52.894;6.040;2022-08-19T01:49:36;5.25;;;3.00;;
52530;SDS011;38441;52.894;6.040;2022-08-19T01:52:02;3.63;;;2.00;;
52530;SDS011;38441;52.894;6.040;2022-08-19T01:54:29;5.25;;;2.63;;
52530;SDS011;38441;52.894;6.040;2022-08-19T01:56:56;4.57;;;2.50;;
52530;SDS011;38441;52.894;6.040;2022-08-19T01:59:25;4.38;;;3.13;;
52530;SDS011;38441;52.894;6.040;2022-08-19T02:01:50;4.43;;;3.03;;
52530;SDS011;38441;52.894;6.040;2022-08-19T02:04:16;6.40;;;3.42;;
52530;SDS011;38441;52.894;6.040;2022-08-19T02:06:42;6.70;;;4.00;;
52530;SDS011;38441;52.894;6.040;2022-08-19T02:09:08;6.53;;;4.53;;
52530;SDS011;38441;52.894;6.040;2022-08-19T02:11:34;6.28;;;4.88;;
52530;SDS011;38441;52.894;6.040;2022-08-19T02:14:02;6.82;;;4.50;;
52530;SDS011;38441;52.894;6.040;2022-08-19T02:16:29;7.85;;;5.35;;
52530;SDS011;38441;52.894;6.040;2022-08-19T02:18:55;6.80;;;5.07;;
52530;SDS011;38441;52.894;6.040;2022-08-19T02:21:22;7.18;;;4.95;;
52530;SDS011;38441;52.894;6.040;2022-08-19T02:23:49;5.68;;;4.63;;
52530;SDS011;38441;52.894;6.040;2022-08-19T02:26:15;7.00;;;5.07;;
52530;SDS011;38441;52.894;6.040;2022-08-19T02:28:42;6.57;;;5.05;;
52530;SDS011;38441;52.894;6.040;2022-08-19T02:31:09;6.40;;;5.43;;
52530;SDS011;38441;52.894;6.040;2022-08-19T02:33:36;7.20;;;4.85;;
52530;SDS011;38441;52.894;6.040;2022-08-19T02:36:03;7.55;;;5.75;;
52530;SDS011;38441;52.894;6.040;2022-08-19T02:38:30;8.32;;;5.55;;
52530;SDS011;38441;52.894;6.040;2022-08-19T02:41:00;8.20;;;5.43;;
52530;SDS011;38441;52.894;6.040;2022-08-19T02:43:28;7.20;;;5.60;;
52530;SDS011;38441;52.894;6.040;2022-08-19T02:45:55;6.75;;;5.18;;
52530;SDS011;38441;52.894;6.040;2022-08-19T02:48:22;7.90;;;5.28;;
52530;SDS011;38441;52.894;6.040;2022-08-19T02:50:50;7.68;;;5.18;;
52530;SDS011;38441;52.894;6.040;2022-08-19T02:53:24;6.18;;;4.97;;
52530;SDS011;38441;52.894;6.040;2022-08-19T02:55:51;6.85;;;5.05;;
52530;SDS011;38441;52.894;6.040;2022-08-19T02:58:17;6.20;;;4.80;;
52530;SDS011;38441;52.894;6.040;2022-08-19T03:00:44;6.88;;;4.60;;
52530;SDS011;38441;52.894;6.040;2022-08-19T03:03:12;5.65;;;4.10;;
52530;SDS011;38441;52.894;6.040;2022-08-19T03:05:38;5.05;;;3.65;;
52530;SDS011;38441;52.894;6.040;2022-08-19T03:08:04;5.18;;;3.63;;
52530;SDS011;38441;52.894;6.040;2022-08-19T03:10:31;4.45;;;2.95;;
52530;SDS011;38441;52.894;6.040;2022-08-19T03:12:57;5.25;;;3.63;;
52530;SDS011;38441;52.894;6.040;2022-08-19T03:15:23;5.38;;;4.47;;
52530;SDS011;38441;52.894;6.040;2022-08-19T03:17:48;6.70;;;4.68;;
52530;SDS011;38441;52.894;6.040;2022-08-19T03:20:14;6.90;;;4.90;;
52530;SDS011;38441;52.894;6.040;2022-08-19T03:22:40;6.53;;;5.22;;
52530;SDS011;38441;52.894;6.040;2022-08-19T03:25:05;6.13;;;4.97;;
52530;SDS011;38441;52.894;6.040;2022-08-19T03:27:31;7.72;;;4.85;;
52530;SDS011;38441;52.894;6.040;2022-08-19T03:29:57;7.00;;;4.82;;
52530;SDS011;38441;52.894;6.040;2022-08-19T03:32:23;7.03;;;4.05;;
52530;SDS011;38441;52.894;6.040;2022-08-19T03:34:48;5.47;;;4.13;;
52530;SDS011;38441;52.894;6.040;2022-08-19T03:37:15;4.97;;;3.70;;
52530;SDS011;38441;52.894;6.040;2022-08-19T03:39:41;3.60;;;2.60;;
52530;SDS011;38441;52.894;6.040;2022-08-19T03:42:07;4.47;;;3.20;;
52530;SDS011;38441;52.894;6.040;2022-08-19T03:44:34;5.22;;;3.25;;
52530;SDS011;38441;52.894;6.040;2022-08-19T03:47:02;6.03;;;3.15;;
52530;SDS011;38441;52.894;6.040;2022-08-19T03:49:29;6.20;;;4.10;;
52530;SDS011;38441;52.894;6.040;2022-08-19T03:51:58;5.93;;;3.67;;
52530;SDS011;38441;52.894;6.040;2022-08-19T03:54:25;5.18;;;3.85;;
52530;SDS011;38441;52.894;6.040;2022-08-19T03:56:53;5.43;;;4.22;;
52530;SDS011;38441;52.894;6.040;2022-08-19T03:59:27;7.25;;;5.18;;
52530;SDS011;38441;52.894;6.040;2022-08-19T04:01:56;8.02;;;5.35;;
52530;SDS011;38441;52.894;6.040;2022-08-19T04:04:23;7.22;;;5.45;;
52530;SDS011;38441;52.894;6.040;2022-08-19T04:06:50;7.63;;;5.57;;
52530;SDS011;38441;52.894;6.040;2022-08-19T04:09:16;9.30;;;6.57;;
52530;SDS011;38441;52.894;6.040;2022-08-19T04:11:47;7.75;;;5.13;;
52530;SDS011;38441;52.894;6.040;2022-08-19T04:14:16;7.05;;;5.25;;
52530;SDS011;38441;52.894;6.040;2022-08-19T04:16:44;6.35;;;5.18;;
52530;SDS011;38441;52.894;6.040;2022-08-19T04:19:11;9.38;;;5.57;;
52530;SDS011;38441;52.894;6.040;2022-08-19T04:21:38;6.65;;;5.38;;
52530;SDS011;38441;52.894;6.040;2022-08-19T04:24:05;7.63;;;5.70;;
52530;SDS011;38441;52.894;6.040;2022-08-19T04:26:32;8.35;;;6.65;;
52530;SDS011;38441;52.894;6.040;2022-08-19T04:29:01;9.35;;;5.90;;
52530;SDS011;38441;52.894;6.040;2022-08-19T04:31:30;9.20;;;7.13;;
52530;SDS011;38441;52.894;6.040;2022-08-19T04:34:00;10.60;;;7.28;;
52530;SDS011;38441;52.894;6.040;2022-08-19T04:36:29;10.32;;;7.40;;
52530;SDS011;38441;52.894;6.040;2022-08-19T04:38:58;9.23;;;7.75;;
52530;SDS011;38441;52.894;6.040;2022-08-19T04:41:27;10.75;;;7.78;;
52530;SDS011;38441;52.894;6.040;2022-08-19T04:44:22;9.75;;;7.80;;
52530;SDS011;38441;52.894;6.040;2022-08-19T04:46:48;10.45;;;7.63;;
52530;SDS011;38441;52.894;6.040;2022-08-19T04:49:15;9.77;;;7.80;;
52530;SDS011;38441;52.894;6.040;2022-08-19T04:51:43;11.80;;;8.65;;
52530;SDS011;38441;52.894;6.040;2022-08-19T04:54:10;10.88;;;8.18;;
52530;SDS011;38441;52.894;6.040;2022-08-19T04:56:38;11.43;;;7.93;;
52530;SDS011;38441;52.894;6.040;2022-08-19T04:59:05;9.88;;;7.13;;
52530;SDS011;38441;52.894;6.040;2022-08-19T05:01:32;9.50;;;7.13;;
52530;SDS011;38441;52.894;6.040;2022-08-19T05:03:59;8.95;;;5.93;;
52530;SDS011;38441;52.894;6.040;2022-08-19T05:06:26;9.07;;;6.85;;
52530;SDS011;38441;52.894;6.040;2022-08-19T05:08:52;8.13;;;6.32;;
52530;SDS011;38441;52.894;6.040;2022-08-19T05:11:21;9.82;;;7.25;;
52530;SDS011;38441;52.894;6.040;2022-08-19T05:16:16;10.00;;;7.60;;
52530;SDS011;38441;52.894;6.040;2022-08-19T05:18:43;10.60;;;8.07;;
52530;SDS011;38441;52.894;6.040;2022-08-19T05:21:28;10.30;;;7.90;;
52530;SDS011;38441;52.894;6.040;2022-08-19T05:24:13;10.40;;;7.97;;
52530;SDS011;38441;52.894;6.040;2022-08-19T05:26:40;11.50;;;8.73;;
52530;SDS011;38441;52.894;6.040;2022-08-19T05:29:11;12.80;;;8.48;;
52530;SDS011;38441;52.894;6.040;2022-08-19T05:31:38;12.45;;;9.35;;
52530;SDS011;38441;52.894;6.040;2022-08-19T05:34:04;11.98;;;9.57;;
52530;SDS011;38441;52.894;6.040;2022-08-19T05:36:33;12.55;;;9.77;;
52530;SDS011;38441;52.894;6.040;2022-08-19T05:39:03;13.55;;;9.90;;
52530;SDS011;38441;52.894;6.040;2022-08-19T05:41:29;14.63;;;10.75;;
52530;SDS011;38441;52.894;6.040;2022-08-19T05:44:00;14.30;;;10.10;;
52530;SDS011;38441;52.894;6.040;2022-08-19T05:46:28;12.98;;;9.65;;
52530;SDS011;38441;52.894;6.040;2022-08-19T05:48:54;15.73;;;11.48;;
52530;SDS011;38441;52.894;6.040;2022-08-19T05:51:21;16.30;;;11.40;;
52530;SDS011;38441;52.894;6.040;2022-08-19T05:53:48;15.57;;;11.05;;
52530;SDS011;38441;52.894;6.040;2022-08-19T05:56:15;12.75;;;10.68;;
52530;SDS011;38441;52.894;6.040;2022-08-19T05:58:42;15.13;;;11.30;;
52530;SDS011;38441;52.894;6.040;2022-08-19T06:01:10;14.60;;;11.18;;
52530;SDS011;38441;52.894;6.040;2022-08-19T06:03:38;14.90;;;10.55;;
52530;SDS011;38441;52.894;6.040;2022-08-19T06:06:05;13.75;;;10.55;;
52530;SDS011;38441;52.894;6.040;2022-08-19T06:08:32;17.75;;;11.23;;
52530;SDS011;38441;52.894;6.040;2022-08-19T06:11:11;15.10;;;11.27;;
52530;SDS011;38441;52.894;6.040;2022-08-19T06:13:48;14.07;;;10.48;;
52530;SDS011;38441;52.894;6.040;2022-08-19T06:16:18;13.85;;;11.63;;
52530;SDS011;38441;52.894;6.040;2022-08-19T06:18:49;16.05;;;11.88;;
52530;SDS011;38441;52.894;6.040;2022-08-19T06:21:17;14.88;;;12.25;;
52530;SDS011;38441;52.894;6.040;2022-08-19T06:23:44;18.13;;;12.90;;
52530;SDS011;38441;52.894;6.040;2022-08-19T06:26:12;18.75;;;12.80;;
52530;SDS011;38441;52.894;6.040;2022-08-19T06:28:39;15.98;;;13.15;;
52530;SDS011;38441;52.894;6.040;2022-08-19T06:31:08;19.80;;;14.38;;
52530;SDS011;38441;52.894;6.040;2022-08-19T06:33:34;18.70;;;13.68;;
52530;SDS011;38441;52.894;6.040;2022-08-19T06:36:00;21.35;;;13.75;;
52530;SDS011;38441;52.894;6.040;2022-08-19T06:38:38;15.40;;;13.02;;
52530;SDS011;38441;52.894;6.040;2022-08-19T06:41:25;19.85;;;13.73;;
52530;SDS011;38441;52.894;6.040;2022-08-19T06:43:51;17.27;;;13.13;;
52530;SDS011;38441;52.894;6.040;2022-08-19T06:46:17;19.70;;;14.18;;
52530;SDS011;38441;52.894;6.040;2022-08-19T06:48:44;16.67;;;13.20;;
52530;SDS011;38441;52.894;6.040;2022-08-19T06:51:11;17.30;;;13.02;;
52530;SDS011;38441;52.894;6.040;2022-08-19T06:53:40;19.27;;;12.80;;
52530;SDS011;38441;52.894;6.040;2022-08-19T06:56:12;14.82;;;12.90;;
52530;SDS011;38441;52.894;6.040;2022-08-19T06:58:39;16.70;;;13.10;;
52530;SDS011;38441;52.894;6.040;2022-08-19T07:01:05;17.42;;;14.00;;
52530;SDS011;38441;52.894;6.040;2022-08-19T07:03:32;16.38;;;12.60;;
52530;SDS011;38441;52.894;6.040;2022-08-19T07:06:07;16.83;;;12.52;;
52530;SDS011;38441;52.894;6.040;2022-08-19T07:08:35;16.90;;;13.02;;
52530;SDS011;38441;52.894;6.040;2022-08-19T07:11:05;15.85;;;11.82;;
52530;SDS011;38441;52.894;6.040;2022-08-19T07:13:33;17.35;;;14.05;;
52530;SDS011;38441;52.894;6.040;2022-08-19T07:16:08;16.52;;;12.82;;
52530;SDS011;38441;52.894;6.040;2022-08-19T07:18:37;16.63;;;13.07;;
52530;SDS011;38441;52.894;6.040;2022-08-19T07:21:08;17.35;;;13.18;;
52530;SDS011;38441;52.894;6.040;2022-08-19T07:23:41;16.45;;;13.18;;
52530;SDS011;38441;52.894;6.040;2022-08-19T07:26:19;20.38;;;14.18;;
52530;SDS011;38441;52.894;6.040;2022-08-19T07:29:04;17.75;;;13.07;;
52530;SDS011;38441;52.894;6.040;2022-08-19T07:31:30;16.90;;;13.45;;
52530;SDS011;38441;52.894;6.040;2022-08-19T07:34:02;18.03;;;13.87;;
52530;SDS011;38441;52.894;6.040;2022-08-19T07:36:31;19.55;;;14.60;;
52530;SDS011;38441;52.894;6.040;2022-08-19T07:38:59;17.55;;;14.88;;
52530;SDS011;38441;52.894;6.040;2022-08-19T07:41:28;19.20;;;15.07;;
52530;SDS011;38441;52.894;6.040;2022-08-19T07:43:55;19.30;;;14.90;;
52530;SDS011;38441;52.894;6.040;2022-08-19T07:46:21;20.25;;;14.77;;
52530;SDS011;38441;52.894;6.040;2022-08-19T07:48:48;18.90;;;15.95;;
52530;SDS011;38441;52.894;6.040;2022-08-19T07:51:17;19.23;;;16.00;;
52530;SDS011;38441;52.894;6.040;2022-08-19T07:53:44;23.58;;;16.17;;
52530;SDS011;38441;52.894;6.040;2022-08-19T07:56:12;20.90;;;16.33;;
52530;SDS011;38441;52.894;6.040;2022-08-19T07:58:39;22.20;;;18.15;;
52530;SDS011;38441;52.894;6.040;2022-08-19T08:01:08;21.30;;;18.40;;
52530;SDS011;38441;52.894;6.040;2022-08-19T08:03:38;21.50;;;17.35;;
52530;SDS011;38441;52.894;6.040;2022-08-19T08:06:23;21.40;;;17.92;;
52530;SDS011;38441;52.894;6.040;2022-08-19T08:09:08;21.85;;;18.25;;
52530;SDS011;38441;52.894;6.040;2022-08-19T08:50:53;20.02;;;17.52;;
52530;SDS011;38441;52.894;6.040;2022-08-19T08:53:21;22.73;;;18.48;;
52530;SDS011;38441;52.894;6.040;2022-08-19T08:55:48;19.90;;;17.58;;
52530;SDS011;38441;52.894;6.040;2022-08-19T08:58:19;22.40;;;19.05;;
52530;SDS011;38441;52.894;6.040;2022-08-19T09:00:47;19.98;;;17.23;;
52530;SDS011;38441;52.894;6.040;2022-08-19T09:03:25;18.05;;;15.48;;
52530;SDS011;38441;52.894;6.040;2022-08-19T09:06:00;18.05;;;15.73;;
52530;SDS011;38441;52.894;6.040;2022-08-19T09:08:39;18.98;;;15.10;;
52530;SDS011;38441;52.894;6.040;2022-08-19T09:11:10;19.42;;;14.55;;
52530;SDS011;38441;52.894;6.040;2022-08-19T09:16:18;17.90;;;14.35;;
52530;SDS011;38441;52.894;6.040;2022-08-19T09:18:54;17.80;;;14.38;;
52530;SDS011;38441;52.894;6.040;2022-08-19T09:21:23;17.00;;;15.27;;
52530;SDS011;38441;52.894;6.040;2022-08-19T09:23:50;19.70;;;14.85;;
52530;SDS011;38441;52.894;6.040;2022-08-19T09:26:18;17.42;;;13.52;;
52530;SDS011;38441;52.894;6.040;2022-08-19T09:28:46;13.95;;;12.05;;
52530;SDS011;38441;52.894;6.040;2022-08-19T09:31:14;16.10;;;13.13;;
52530;SDS011;38441;52.894;6.040;2022-08-19T09:33:48;17.80;;;12.80;;
52530;SDS011;38441;52.894;6.040;2022-08-19T09:36:15;15.18;;;12.00;;
52530;SDS011;38441;52.894;6.040;2022-08-19T09:38:43;14.40;;;10.65;;
52530;SDS011;38441;52.894;6.040;2022-08-19T09:41:14;13.00;;;10.20;;
52530;SDS011;38441;52.894;6.040;2022-08-19T09:43:44;14.05;;;10.02;;
52530;SDS011;38441;52.894;6.040;2022-08-19T09:46:11;12.90;;;10.60;;
52530;SDS011;38441;52.894;6.040;2022-08-19T09:48:40;16.75;;;9.88;;
52530;SDS011;38441;52.894;6.040;2022-08-19T09:51:08;12.32;;;7.70;;
52530;SDS011;38441;52.894;6.040;2022-08-19T09:53:36;11.40;;;8.32;;
52530;SDS011;38441;52.894;6.040;2022-08-19T09:56:04;12.77;;;8.75;;
52530;SDS011;38441;52.894;6.040;2022-08-19T09:58:30;11.57;;;7.93;;
52530;SDS011;38441;52.894;6.040;2022-08-19T10:01:00;10.82;;;8.65;;
52530;SDS011;38441;52.894;6.040;2022-08-19T10:03:27;11.82;;;8.15;;
52530;SDS011;38441;52.894;6.040;2022-08-19T10:05:54;12.63;;;8.43;;
52530;SDS011;38441;52.894;6.040;2022-08-19T10:08:29;12.02;;;7.90;;
52530;SDS011;38441;52.894;6.040;2022-08-19T10:10:58;10.73;;;7.10;;
52530;SDS011;38441;52.894;6.040;2022-08-19T10:13:25;13.43;;;7.65;;
52530;SDS011;38441;52.894;6.040;2022-08-19T10:15:53;12.98;;;7.25;;
52530;SDS011;38441;52.894;6.040;2022-08-19T10:18:22;10.00;;;7.45;;
52530;SDS011;38441;52.894;6.040;2022-08-19T10:20:49;10.30;;;7.38;;
52530;SDS011;38441;52.894;6.040;2022-08-19T10:23:17;10.80;;;8.82;;
52530;SDS011;38441;52.894;6.040;2022-08-19T10:25:44;12.82;;;10.02;;
52530;SDS011;38441;52.894;6.040;2022-08-19T10:28:10;16.38;;;11.63;;
52530;SDS011;38441;52.894;6.040;2022-08-19T10:30:39;15.52;;;12.55;;
52530;SDS011;38441;52.894;6.040;2022-08-19T10:33:06;14.48;;;10.90;;
52530;SDS011;38441;52.894;6.040;2022-08-19T10:38:52;13.73;;;10.07;;
52530;SDS011;38441;52.894;6.040;2022-08-19T10:44:38;15.38;;;10.50;;
52530;SDS011;38441;52.894;6.040;2022-08-19T10:47:05;12.02;;;9.88;;
52530;SDS011;38441;52.894;6.040;2022-08-19T10:49:31;16.13;;;10.23;;
52530;SDS011;38441;52.894;6.040;2022-08-19T10:51:57;12.63;;;8.95;;
52530;SDS011;38441;52.894;6.040;2022-08-19T10:54:41;15.13;;;10.40;;
52530;SDS011;38441;52.894;6.040;2022-08-19T10:57:29;16.65;;;10.23;;
52530;SDS011;38441;52.894;6.040;2022-08-19T10:59:56;13.93;;;11.07;;
52530;SDS011;38441;52.894;6.040;2022-08-19T11:02:22;12.40;;;10.77;;
52530;SDS011;38441;52.894;6.040;2022-08-19T11:04:48;17.23;;;13.20;;
52530;SDS011;38441;52.894;6.040;2022-08-19T11:07:15;16.48;;;12.38;;
52530;SDS011;38441;52.894;6.040;2022-08-19T11:09:41;16.80;;;12.77;;
52530;SDS011;38441;52.894;6.040;2022-08-19T11:12:07;15.05;;;12.00;;
52530;SDS011;38441;52.894;6.040;2022-08-19T11:14:34;14.57;;;11.70;;
52530;SDS011;38441;52.894;6.040;2022-08-19T11:17:01;13.80;;;10.07;;
52530;SDS011;38441;52.894;6.040;2022-08-19T11:19:28;14.05;;;10.98;;
52530;SDS011;38441;52.894;6.040;2022-08-19T11:21:54;18.40;;;13.50;;
52530;SDS011;38441;52.894;6.040;2022-08-19T11:24:21;19.25;;;13.60;;
52530;SDS011;38441;52.894;6.040;2022-08-19T11:26:50;19.40;;;13.25;;
52530;SDS011;38441;52.894;6.040;2022-08-19T11:29:19;14.27;;;10.77;;
52530;SDS011;38441;52.894;6.040;2022-08-19T11:31:46;13.60;;;9.88;;
52530;SDS011;38441;52.894;6.040;2022-08-19T11:34:20;13.45;;;11.05;;
52530;SDS011;38441;52.894;6.040;2022-08-19T11:36:48;17.67;;;12.32;;
52530;SDS011;38441;52.894;6.040;2022-08-19T11:39:16;15.20;;;13.23;;
52530;SDS011;38441;52.894;6.040;2022-08-19T11:41:43;14.25;;;12.05;;
52530;SDS011;38441;52.894;6.040;2022-08-19T11:44:09;18.08;;;14.32;;
52530;SDS011;38441;52.894;6.040;2022-08-19T11:46:35;20.17;;;14.77;;
52530;SDS011;38441;52.894;6.040;2022-08-19T11:49:03;17.40;;;14.90;;
52530;SDS011;38441;52.894;6.040;2022-08-19T11:51:34;19.50;;;16.42;;
52530;SDS011;38441;52.894;6.040;2022-08-19T11:54:00;19.63;;;14.05;;
52530;SDS011;38441;52.894;6.040;2022-08-19T11:56:26;18.80;;;14.07;;
52530;SDS011;38441;52.894;6.040;2022-08-19T11:58:53;21.02;;;17.38;;
52530;SDS011;38441;52.894;6.040;2022-08-19T12:01:25;20.58;;;15.40;;
52530;SDS011;38441;52.894;6.040;2022-08-19T12:03:52;21.83;;;15.80;;
52530;SDS011;38441;52.894;6.040;2022-08-19T12:06:24;17.52;;;13.60;;
52530;SDS011;38441;52.894;6.040;2022-08-19T12:08:54;16.70;;;13.05;;
52530;SDS011;38441;52.894;6.040;2022-08-19T12:11:26;17.88;;;14.02;;
52530;SDS011;38441;52.894;6.040;2022-08-19T12:13:58;17.15;;;12.57;;
52530;SDS011;38441;52.894;6.040;2022-08-19T12:16:25;19.08;;;14.02;;
52530;SDS011;38441;52.894;6.040;2022-08-19T12:18:52;15.90;;;12.70;;
52530;SDS011;38441;52.894;6.040;2022-08-19T12:21:19;21.58;;;15.52;;
52530;SDS011;38441;52.894;6.040;2022-08-19T12:23:53;20.25;;;15.35;;
52530;SDS011;38441;52.894;6.040;2022-08-19T12:26:20;18.05;;;14.98;;
52530;SDS011;38441;52.894;6.040;2022-08-19T12:28:46;17.63;;;13.13;;
52530;SDS011;38441;52.894;6.040;2022-08-19T12:31:13;16.33;;;13.68;;
52530;SDS011;38441;52.894;6.040;2022-08-19T12:33:40;16.95;;;14.00;;
52530;SDS011;38441;52.894;6.040;2022-08-19T12:36:08;20.23;;;15.13;;
52530;SDS011;38441;52.894;6.040;2022-08-19T12:38:35;23.58;;;15.13;;
52530;SDS011;38441;52.894;6.040;2022-08-19T12:41:05;21.42;;;17.42;;
52530;SDS011;38441;52.894;6.040;2022-08-19T12:43:32;17.33;;;15.07;;
52530;SDS011;38441;52.894;6.040;2022-08-19T12:46:00;19.30;;;15.10;;
52530;SDS011;38441;52.894;6.040;2022-08-19T12:48:26;18.80;;;13.52;;
52530;SDS011;38441;52.894;6.040;2022-08-19T12:50:52;18.27;;;13.10;;
52530;SDS011;38441;52.894;6.040;2022-08-19T12:53:19;19.73;;;14.10;;
52530;SDS011;38441;52.894;6.040;2022-08-19T12:55:45;23.27;;;15.23;;
52530;SDS011;38441;52.894;6.040;2022-08-19T12:58:10;18.20;;;12.82;;
52530;SDS011;38441;52.894;6.040;2022-08-19T13:00:37;19.00;;;12.27;;
52530;SDS011;38441;52.894;6.040;2022-08-19T13:03:03;15.65;;;12.70;;
52530;SDS011;38441;52.894;6.040;2022-08-19T13:05:30;16.25;;;11.68;;
52530;SDS011;38441;52.894;6.040;2022-08-19T13:07:58;18.98;;;13.95;;
52530;SDS011;38441;52.894;6.040;2022-08-19T13:10:28;17.95;;;12.90;;
52530;SDS011;38441;52.894;6.040;2022-08-19T13:12:57;16.92;;;14.27;;
52530;SDS011;38441;52.894;6.040;2022-08-19T13:15:24;18.45;;;12.48;;
52530;SDS011;38441;52.894;6.040;2022-08-19T13:17:51;15.70;;;11.25;;
52530;SDS011;38441;52.894;6.040;2022-08-19T13:20:19;14.68;;;10.15;;
52530;SDS011;38441;52.894;6.040;2022-08-19T13:22:45;14.32;;;10.25;;
52530;SDS011;38441;52.894;6.040;2022-08-19T13:25:13;15.40;;;12.02;;
52530;SDS011;38441;52.894;6.040;2022-08-19T13:27:42;15.32;;;13.10;;
52530;SDS011;38441;52.894;6.040;2022-08-19T13:30:09;19.23;;;13.82;;
52530;SDS011;38441;52.894;6.040;2022-08-19T13:32:55;17.00;;;12.85;;
52530;SDS011;38441;52.894;6.040;2022-08-19T13:35:37;22.50;;;13.07;;
52530;SDS011;38441;52.894;6.040;2022-08-19T13:38:12;18.15;;;13.50;;
52530;SDS011;38441;52.894;6.040;2022-08-19T13:40:39;15.35;;;12.65;;
52530;SDS011;38441;52.894;6.040;2022-08-19T13:43:06;15.35;;;11.57;;
52530;SDS011;38441;52.894;6.040;2022-08-19T13:45:32;12.10;;;9.85;;
52530;SDS011;38441;52.894;6.040;2022-08-19T13:47:59;16.58;;;9.45;;
52530;SDS011;38441;52.894;6.040;2022-08-19T13:50:28;14.60;;;10.25;;
52530;SDS011;38441;52.894;6.040;2022-08-19T13:52:56;12.57;;;9.43;;
52530;SDS011;38441;52.894;6.040;2022-08-19T13:55:22;14.43;;;10.27;;
52530;SDS011;38441;52.894;6.040;2022-08-19T13:57:56;12.50;;;9.27;;
52530;SDS011;38441;52.894;6.040;2022-08-19T14:00:25;14.15;;;9.25;;
52530;SDS011;38441;52.894;6.040;2022-08-19T14:02:53;13.75;;;9.55;;
52530;SDS011;38441;52.894;6.040;2022-08-19T14:05:21;14.73;;;9.90;;
52530;SDS011;38441;52.894;6.040;2022-08-19T14:07:47;15.15;;;10.40;;
52530;SDS011;38441;52.894;6.040;2022-08-19T14:10:13;17.55;;;12.10;;
52530;SDS011;38441;52.894;6.040;2022-08-19T14:12:40;19.15;;;11.25;;
52530;SDS011;38441;52.894;6.040;2022-08-19T14:15:07;22.38;;;11.90;;
52530;SDS011;38441;52.894;6.040;2022-08-19T14:17:34;14.82;;;10.95;;
52530;SDS011;38441;52.894;6.040;2022-08-19T14:20:03;16.63;;;12.10;;
52530;SDS011;38441;52.894;6.040;2022-08-19T14:22:33;17.60;;;12.98;;
52530;SDS011;38441;52.894;6.040;2022-08-19T14:25:00;16.75;;;11.45;;
52530;SDS011;38441;52.894;6.040;2022-08-19T14:27:26;17.23;;;12.63;;
52530;SDS011;38441;52.894;6.040;2022-08-19T14:29:52;16.95;;;11.25;;
52530;SDS011;38441;52.894;6.040;2022-08-19T14:32:18;16.25;;;11.43;;
52530;SDS011;38441;52.894;6.040;2022-08-19T14:34:44;14.15;;;9.90;;
52530;SDS011;38441;52.894;6.040;2022-08-19T14:37:12;13.70;;;9.35;;
52530;SDS011;38441;52.894;6.040;2022-08-19T14:39:39;10.95;;;8.70;;
52530;SDS011;38441;52.894;6.040;2022-08-19T14:42:06;12.10;;;8.60;;
52530;SDS011;38441;52.894;6.040;2022-08-19T14:44:33;9.57;;;7.43;;
52530;SDS011;38441;52.894;6.040;2022-08-19T14:46:59;8.55;;;6.22;;
52530;SDS011;38441;52.894;6.040;2022-08-19T14:49:24;11.25;;;6.72;;
52530;SDS011;38441;52.894;6.040;2022-08-19T14:51:50;10.65;;;6.28;;
52530;SDS011;38441;52.894;6.040;2022-08-19T14:54:16;10.48;;;6.28;;
52530;SDS011;38441;52.894;6.040;2022-08-19T14:56:42;10.68;;;7.15;;
52530;SDS011;38441;52.894;6.040;2022-08-19T14:59:08;9.95;;;6.75;;
52530;SDS011;38441;52.894;6.040;2022-08-19T15:01:34;11.82;;;7.45;;
52530;SDS011;38441;52.894;6.040;2022-08-19T15:03:59;11.38;;;7.80;;
52530;SDS011;38441;52.894;6.040;2022-08-19T15:06:25;12.23;;;7.35;;
52530;SDS011;38441;52.894;6.040;2022-08-19T15:08:51;13.32;;;7.25;;
52530;SDS011;38441;52.894;6.040;2022-08-19T15:11:19;12.32;;;8.52;;
52530;SDS011;38441;52.894;6.040;2022-08-19T15:13:47;10.57;;;7.57;;
52530;SDS011;38441;52.894;6.040;2022-08-19T15:16:13;11.98;;;6.70;;
52530;SDS011;38441;52.894;6.040;2022-08-19T15:18:42;10.07;;;7.45;;
52530;SDS011;38441;52.894;6.040;2022-08-19T15:21:10;12.88;;;7.80;;
52530;SDS011;38441;52.894;6.040;2022-08-19T15:23:37;12.02;;;6.75;;
52530;SDS011;38441;52.894;6.040;2022-08-19T15:26:04;10.50;;;6.50;;
52530;SDS011;38441;52.894;6.040;2022-08-19T15:28:30;10.63;;;7.60;;
52530;SDS011;38441;52.894;6.040;2022-08-19T15:30:58;13.25;;;7.53;;
52530;SDS011;38441;52.894;6.040;2022-08-19T15:33:24;12.35;;;7.30;;